sensor_id;sensor_type;location;lat;lon;timestamp;pressure;altitude;pressure_sealevel;temperature;humidity
70141;BME280;57508;43.086;0.136;2022-08-01T00:01:06;96299.06;;;30.37;41.29
70141;BME280;57508;43.086;0.136;2022-08-01T00:03:31;96299.94;;;30.23;41.92
70141;BME280;57508;43.086;0.136;2022-08-01T00:05:57;96298.06;;;30.13;43.17
70141;BME280;57508;43.086;0.136;2022-08-01T00:08:22;96297.72;;;30.07;42.84
70141;BME280;57508;43.086;0.136;2022-08-01T00:10:47;96300.84;;;30.05;42.98
70141;BME280;57508;43.086;0.136;2022-08-01T00:13:12;96297.72;;;30.07;43.02
70141;BME280;57508;43.086;0.136;2022-08-01T00:15:38;96289.13;;;30.09;41.96
70141;BME280;57508;43.086;0.136;2022-08-01T00:18:03;96295.44;;;30.02;42.72
70141;BME280;57508;43.086;0.136;2022-08-01T00:20:28;96291.13;;;30.01;42.11
70141;BME280;57508;43.086;0.136;2022-08-01T00:22:53;96289.66;;;29.96;43.18
70141;BME280;57508;43.086;0.136;2022-08-01T00:25:19;96293.16;;;29.93;42.55
70141;BME280;57508;43.086;0.136;2022-08-01T00:27:44;96293.06;;;30.08;41.67
70141;BME280;57508;43.086;0.136;2022-08-01T00:30:09;96290.66;;;30.13;42.26
70141;BME280;57508;43.086;0.136;2022-08-01T00:32:34;96285.22;;;30.13;42.26
70141;BME280;57508;43.086;0.136;2022-08-01T00:35:00;96277.06;;;30.10;42.16
70141;BME280;57508;43.086;0.136;2022-08-01T00:37:25;96280.22;;;30.08;42.84
70141;BME280;57508;43.086;0.136;2022-08-01T00:39:50;96282.94;;;30.04;41.80
70141;BME280;57508;43.086;0.136;2022-08-01T00:42:16;96274.50;;;29.88;42.76
70141;BME280;57508;43.086;0.136;2022-08-01T00:44:41;96274.91;;;29.90;42.33
70141;BME280;57508;43.086;0.136;2022-08-01T00:47:07;96277.50;;;30.04;42.00
70141;BME280;57508;43.086;0.136;2022-08-01T00:49:32;96272.44;;;30.07;42.56
70141;BME280;57508;43.086;0.136;2022-08-01T00:51:58;96273.78;;;29.84;42.63
70141;BME280;57508;43.086;0.136;2022-08-01T00:54:26;96273.38;;;29.85;43.07
70141;BME280;57508;43.086;0.136;2022-08-01T00:56:52;96273.66;;;29.98;42.56
70141;BME280;57508;43.086;0.136;2022-08-01T00:59:18;96272.44;;;30.07;41.77
70141;BME280;57508;43.086;0.136;2022-08-01T01:01:45;96265.00;;;30.11;42.42
70141;BME280;57508;43.086;0.136;2022-08-01T01:04:11;96277.88;;;30.07;42.44
70141;BME280;57508;43.086;0.136;2022-08-01T01:16:56;96276.63;;;30.15;42.12
70141;BME280;57508;43.086;0.136;2022-08-01T01:19:24;96271.59;;;30.17;42.41
70141;BME280;57508;43.086;0.136;2022-08-01T01:24:37;96268.88;;;30.13;42.30
70141;BME280;57508;43.086;0.136;2022-08-01T01:27:26;96277.44;;;30.15;41.77
70141;BME280;57508;43.086;0.136;2022-08-01T01:29:55;96271.16;;;30.18;42.34
70141;BME280;57508;43.086;0.136;2022-08-01T01:32:35;96265.38;;;30.16;42.38
70141;BME280;57508;43.086;0.136;2022-08-01T01:35:04;96266.16;;;30.17;42.09
70141;BME280;57508;43.086;0.136;2022-08-01T01:37:30;96259.22;;;30.01;42.08
70141;BME280;57508;43.086;0.136;2022-08-01T01:39:58;96260.75;;;29.49;43.47
70141;BME280;57508;43.086;0.136;2022-08-01T01:42:24;96261.69;;;29.85;42.62
70141;BME280;57508;43.086;0.136;2022-08-01T01:44:50;96258.09;;;29.95;42.54
70141;BME280;57508;43.086;0.136;2022-08-01T01:47:16;96259.22;;;30.01;42.46
70141;BME280;57508;43.086;0.136;2022-08-01T01:49:43;96254.13;;;30.07;42.06
70141;BME280;57508;43.086;0.136;2022-08-01T01:52:09;96257.97;;;30.13;42.78
70141;BME280;57508;43.086;0.136;2022-08-01T01:54:37;96261.09;;;30.12;42.67
70141;BME280;57508;43.086;0.136;2022-08-01T01:57:04;96252.50;;;30.13;41.85
70141;BME280;57508;43.086;0.136;2022-08-01T01:59:31;96247.91;;;30.07;42.35
70141;BME280;57508;43.086;0.136;2022-08-01T02:01:58;96252.50;;;30.13;41.91
70141;BME280;57508;43.086;0.136;2022-08-01T02:04:24;96246.66;;;30.18;41.82
70141;BME280;57508;43.086;0.136;2022-08-01T02:06:52;96246.66;;;30.15;42.47
70141;BME280;57508;43.086;0.136;2022-08-01T02:09:18;96247.47;;;30.12;42.58
70141;BME280;57508;43.086;0.136;2022-08-01T02:11:45;96240.94;;;30.02;42.36
70141;BME280;57508;43.086;0.136;2022-08-01T02:14:11;96240.16;;;30.05;41.84
70141;BME280;57508;43.086;0.136;2022-08-01T02:16:37;96234.66;;;30.09;41.65
70141;BME280;57508;43.086;0.136;2022-08-01T02:19:04;96234.28;;;30.07;42.54
70141;BME280;57508;43.086;0.136;2022-08-01T02:21:32;96236.25;;;30.02;41.65
70141;BME280;57508;43.086;0.136;2022-08-01T02:24:03;96236.22;;;30.06;41.81
70141;BME280;57508;43.086;0.136;2022-08-01T02:26:33;96237.09;;;29.99;41.91
70141;BME280;57508;43.086;0.136;2022-08-01T02:29:00;96237.00;;;30.07;41.72
70141;BME280;57508;43.086;0.136;2022-08-01T02:31:27;96237.78;;;30.07;42.13
70141;BME280;57508;43.086;0.136;2022-08-01T02:34:06;96231.97;;;30.05;42.47
70141;BME280;57508;43.086;0.136;2022-08-01T02:36:33;96232.50;;;29.85;42.43
70141;BME280;57508;43.086;0.136;2022-08-01T02:38:59;96224.06;;;29.72;43.58
70141;BME280;57508;43.086;0.136;2022-08-01T02:41:25;96225.66;;;29.70;43.47
70141;BME280;57508;43.086;0.136;2022-08-01T02:43:53;96216.59;;;29.23;43.82
70141;BME280;57508;43.086;0.136;2022-08-01T02:46:30;96218.56;;;29.23;43.98
70141;BME280;57508;43.086;0.136;2022-08-01T02:48:56;96214.22;;;29.33;44.22
70141;BME280;57508;43.086;0.136;2022-08-01T02:51:23;96218.50;;;29.30;43.73
70141;BME280;57508;43.086;0.136;2022-08-01T02:53:49;96215.06;;;29.19;44.11
70141;BME280;57508;43.086;0.136;2022-08-01T02:56:15;96208.59;;;28.94;45.05
70141;BME280;57508;43.086;0.136;2022-08-01T02:58:42;96213.53;;;29.17;44.37
70141;BME280;57508;43.086;0.136;2022-08-01T03:01:08;96207.28;;;29.21;43.75
70141;BME280;57508;43.086;0.136;2022-08-01T03:03:34;96215.81;;;29.26;43.43
70141;BME280;57508;43.086;0.136;2022-08-01T03:06:00;96210.41;;;29.19;43.58
70141;BME280;57508;43.086;0.136;2022-08-01T03:08:26;96211.91;;;29.27;43.29
70141;BME280;57508;43.086;0.136;2022-08-01T03:10:53;96214.25;;;29.25;43.21
70141;BME280;57508;43.086;0.136;2022-08-01T03:13:20;96219.31;;;29.27;43.20
70141;BME280;57508;43.086;0.136;2022-08-01T03:15:46;96213.47;;;29.28;43.17
70141;BME280;57508;43.086;0.136;2022-08-01T03:18:13;96212.69;;;29.24;43.23
70141;BME280;57508;43.086;0.136;2022-08-01T03:20:40;96210.34;;;29.26;43.51
70141;BME280;57508;43.086;0.136;2022-08-01T03:23:07;96212.00;;;29.13;44.19
70141;BME280;57508;43.086;0.136;2022-08-01T03:25:34;96213.13;;;29.19;43.30
70141;BME280;57508;43.086;0.136;2022-08-01T03:28:02;96215.09;;;29.11;44.08
70141;BME280;57508;43.086;0.136;2022-08-01T03:30:28;96206.53;;;29.16;42.97
70141;BME280;57508;43.086;0.136;2022-08-01T03:32:55;96202.63;;;29.21;42.99
70141;BME280;57508;43.086;0.136;2022-08-01T03:35:20;96202.94;;;29.31;43.85
70141;BME280;57508;43.086;0.136;2022-08-01T03:37:48;96195.59;;;29.24;43.54
70141;BME280;57508;43.086;0.136;2022-08-01T03:40:25;96197.19;;;29.21;43.41
70141;BME280;57508;43.086;0.136;2022-08-01T03:42:58;96199.22;;;29.06;44.18
70141;BME280;57508;43.086;0.136;2022-08-01T03:45:31;96203.47;;;29.07;44.00
70141;BME280;57508;43.086;0.136;2022-08-01T03:48:00;96199.94;;;29.14;43.45
70141;BME280;57508;43.086;0.136;2022-08-01T03:50:26;96202.25;;;29.19;42.90
70141;BME280;57508;43.086;0.136;2022-08-01T03:52:52;96201.09;;;29.16;43.26
70141;BME280;57508;43.086;0.136;2022-08-01T03:55:18;96202.63;;;29.17;43.70
70141;BME280;57508;43.086;0.136;2022-08-01T03:57:46;96197.19;;;29.17;42.91
70141;BME280;57508;43.086;0.136;2022-08-01T04:00:12;96203.88;;;29.09;43.60
70141;BME280;57508;43.086;0.136;2022-08-01T04:02:37;96202.34;;;29.01;44.07
70141;BME280;57508;43.086;0.136;2022-08-01T04:05:03;96210.53;;;28.90;43.74
70141;BME280;57508;43.086;0.136;2022-08-01T04:07:30;96202.03;;;28.84;44.30
70141;BME280;57508;43.086;0.136;2022-08-01T04:09:56;96207.44;;;28.88;43.91
70141;BME280;57508;43.086;0.136;2022-08-01T04:12:21;96212.16;;;28.76;44.28
70141;BME280;57508;43.086;0.136;2022-08-01T04:14:47;96205.56;;;28.70;44.49
70141;BME280;57508;43.086;0.136;2022-08-01T04:17:13;96217.97;;;28.75;43.92
70141;BME280;57508;43.086;0.136;2022-08-01T04:19:40;96224.63;;;28.66;44.25
70141;BME280;57508;43.086;0.136;2022-08-01T04:22:05;96217.25;;;28.60;44.07
70141;BME280;57508;43.086;0.136;2022-08-01T04:24:30;96215.72;;;28.62;44.25
70141;BME280;57508;43.086;0.136;2022-08-01T04:26:58;96209.94;;;28.46;44.42
70141;BME280;57508;43.086;0.136;2022-08-01T04:29:24;96214.19;;;28.50;43.98
70141;BME280;57508;43.086;0.136;2022-08-01T04:31:50;96213.41;;;28.53;44.03
70141;BME280;57508;43.086;0.136;2022-08-01T04:34:20;96210.69;;;28.53;43.82
70141;BME280;57508;43.086;0.136;2022-08-01T04:36:46;96214.56;;;28.52;43.74
70141;BME280;57508;43.086;0.136;2022-08-01T04:39:12;96211.09;;;28.45;43.77
70141;BME280;57508;43.086;0.136;2022-08-01T04:41:38;96211.13;;;28.34;44.35
70141;BME280;57508;43.086;0.136;2022-08-01T04:44:04;96215.78;;;28.11;45.07
70141;BME280;57508;43.086;0.136;2022-08-01T04:46:31;96222.00;;;28.19;44.13
70141;BME280;57508;43.086;0.136;2022-08-01T04:48:58;96224.69;;;28.26;44.17
70141;BME280;57508;43.086;0.136;2022-08-01T04:51:25;96224.69;;;28.23;44.80
70141;BME280;57508;43.086;0.136;2022-08-01T04:53:50;96227.44;;;28.19;44.43
70141;BME280;57508;43.086;0.136;2022-08-01T04:56:16;96228.59;;;28.18;44.44
70141;BME280;57508;43.086;0.136;2022-08-01T04:58:41;96231.69;;;28.13;44.67
70141;BME280;57508;43.086;0.136;2022-08-01T05:01:07;96237.94;;;28.02;44.84
70141;BME280;57508;43.086;0.136;2022-08-01T05:03:32;96231.31;;;28.03;44.56
70141;BME280;57508;43.086;0.136;2022-08-01T05:05:58;96241.03;;;27.97;44.96
70141;BME280;57508;43.086;0.136;2022-08-01T05:08:23;96246.06;;;28.02;44.44
70141;BME280;57508;43.086;0.136;2022-08-01T05:10:48;96244.91;;;28.03;44.62
70141;BME280;57508;43.086;0.136;2022-08-01T05:13:14;96247.63;;;28.14;44.32
70141;BME280;57508;43.086;0.136;2022-08-01T05:15:39;96245.69;;;28.11;44.75
70141;BME280;57508;43.086;0.136;2022-08-01T05:18:04;96255.78;;;28.11;44.63
70141;BME280;57508;43.086;0.136;2022-08-01T05:20:30;96254.97;;;28.14;44.39
70141;BME280;57508;43.086;0.136;2022-08-01T05:22:55;96249.56;;;28.18;44.44
70141;BME280;57508;43.086;0.136;2022-08-01T05:25:22;96247.63;;;28.25;44.29
70141;BME280;57508;43.086;0.136;2022-08-01T05:27:48;96249.56;;;28.28;44.31
70141;BME280;57508;43.086;0.136;2022-08-01T05:30:13;96246.06;;;28.32;43.96
70141;BME280;57508;43.086;0.136;2022-08-01T05:32:39;96245.28;;;28.35;44.15
70141;BME280;57508;43.086;0.136;2022-08-01T05:35:05;96255.34;;;28.45;44.40
70141;BME280;57508;43.086;0.136;2022-08-01T05:37:31;96251.47;;;28.46;44.28
70141;BME280;57508;43.086;0.136;2022-08-01T05:39:56;96252.59;;;28.60;43.86
70141;BME280;57508;43.086;0.136;2022-08-01T05:42:21;96251.44;;;28.61;44.18
70141;BME280;57508;43.086;0.136;2022-08-01T05:44:47;96250.25;;;28.69;43.32
70141;BME280;57508;43.086;0.136;2022-08-01T05:47:12;96256.84;;;28.75;43.64
70141;BME280;57508;43.086;0.136;2022-08-01T05:49:37;96255.25;;;28.74;43.55
70141;BME280;57508;43.086;0.136;2022-08-01T05:52:03;96255.59;;;28.91;43.33
70141;BME280;57508;43.086;0.136;2022-08-01T05:54:30;96256.75;;;29.01;43.33
70141;BME280;57508;43.086;0.136;2022-08-01T05:56:55;96251.63;;;29.17;43.74
70141;BME280;57508;43.086;0.136;2022-08-01T05:59:24;96265.53;;;29.34;43.77
70141;BME280;57508;43.086;0.136;2022-08-01T06:01:49;96264.63;;;29.59;42.94
70141;BME280;57508;43.086;0.136;2022-08-01T06:04:15;96265.38;;;29.60;42.20
70141;BME280;57508;43.086;0.136;2022-08-01T06:06:40;96265.75;;;29.65;42.76
70141;BME280;57508;43.086;0.136;2022-08-01T06:09:05;96259.88;;;29.71;43.23
70141;BME280;57508;43.086;0.136;2022-08-01T06:11:30;96271.31;;;30.00;42.86
70141;BME280;57508;43.086;0.136;2022-08-01T06:13:56;96269.72;;;30.07;42.69
70141;BME280;57508;43.086;0.136;2022-08-01T06:16:21;96265.38;;;30.16;41.65
70141;BME280;57508;43.086;0.136;2022-08-01T06:18:46;96262.53;;;30.27;41.87
70141;BME280;57508;43.086;0.136;2022-08-01T06:21:12;96263.81;;;30.12;42.49
70141;BME280;57508;43.086;0.136;2022-08-01T06:23:37;96265.22;;;30.31;42.73
70141;BME280;57508;43.086;0.136;2022-08-01T06:26:02;96269.28;;;30.54;41.37
70141;BME280;57508;43.086;0.136;2022-08-01T06:28:28;96262.16;;;30.64;42.41
70141;BME280;57508;43.086;0.136;2022-08-01T06:30:53;96258.13;;;30.79;41.91
70141;BME280;57508;43.086;0.136;2022-08-01T06:33:18;96253.50;;;31.08;40.82
70141;BME280;57508;43.086;0.136;2022-08-01T06:35:43;96259.75;;;31.04;40.38
70141;BME280;57508;43.086;0.136;2022-08-01T06:38:09;96261.78;;;31.28;40.13
70141;BME280;57508;43.086;0.136;2022-08-01T06:40:34;96263.75;;;31.27;40.68
70141;BME280;57508;43.086;0.136;2022-08-01T06:42:59;96263.41;;;31.80;39.96
70141;BME280;57508;43.086;0.136;2022-08-01T06:45:25;96259.75;;;32.15;39.16
70141;BME280;57508;43.086;0.136;2022-08-01T06:47:51;96260.88;;;31.93;38.44
70141;BME280;57508;43.086;0.136;2022-08-01T06:50:17;96263.78;;;32.30;38.04
70141;BME280;57508;43.086;0.136;2022-08-01T06:52:43;96255.16;;;32.32;38.13
70141;BME280;57508;43.086;0.136;2022-08-01T06:55:08;96251.22;;;32.57;37.84
70141;BME280;57508;43.086;0.136;2022-08-01T06:57:34;96254.44;;;32.92;37.67
70141;BME280;57508;43.086;0.136;2022-08-01T07:00:08;96254.69;;;32.57;37.75
70141;BME280;57508;43.086;0.136;2022-08-01T07:02:35;96256.16;;;32.82;37.07
70141;BME280;57508;43.086;0.136;2022-08-01T07:05:02;96252.38;;;32.56;37.13
70141;BME280;57508;43.086;0.136;2022-08-01T07:07:28;96255.78;;;32.40;38.06
70141;BME280;57508;43.086;0.136;2022-08-01T07:09:54;96250.41;;;32.97;37.65
70141;BME280;57508;43.086;0.136;2022-08-01T07:12:19;96249.31;;;33.85;36.93
70141;BME280;57508;43.086;0.136;2022-08-01T07:14:44;96249.13;;;34.39;35.65
70141;BME280;57508;43.086;0.136;2022-08-01T07:17:10;96251.16;;;34.51;35.10
70141;BME280;57508;43.086;0.136;2022-08-01T07:19:35;96253.72;;;34.88;34.23
70141;BME280;57508;43.086;0.136;2022-08-01T07:22:00;96250.84;;;36.09;32.86
70141;BME280;57508;43.086;0.136;2022-08-01T07:24:25;96245.75;;;35.20;33.92
70141;BME280;57508;43.086;0.136;2022-08-01T07:26:51;96258.50;;;35.53;33.78
70141;BME280;57508;43.086;0.136;2022-08-01T07:29:16;96253.00;;;36.14;32.94
70141;BME280;57508;43.086;0.136;2022-08-01T07:31:41;96248.03;;;35.87;33.89
70141;BME280;57508;43.086;0.136;2022-08-01T07:34:07;96256.25;;;36.70;31.71
70141;BME280;57508;43.086;0.136;2022-08-01T07:36:32;96243.78;;;37.61;30.30
70141;BME280;57508;43.086;0.136;2022-08-01T07:38:57;96245.44;;;37.90;29.80
70141;BME280;57508;43.086;0.136;2022-08-01T07:41:23;96251.91;;;37.55;30.55
70141;BME280;57508;43.086;0.136;2022-08-01T07:43:48;96241.03;;;38.40;29.23
70141;BME280;57508;43.086;0.136;2022-08-01T07:46:14;96248.06;;;38.69;28.84
70141;BME280;57508;43.086;0.136;2022-08-01T07:48:39;96250.31;;;37.35;30.50
70141;BME280;57508;43.086;0.136;2022-08-01T07:51:05;96244.34;;;37.87;29.62
70141;BME280;57508;43.086;0.136;2022-08-01T07:53:30;96247.16;;;38.62;28.46
70141;BME280;57508;43.086;0.136;2022-08-01T07:55:55;96246.97;;;39.71;27.14
70141;BME280;57508;43.086;0.136;2022-08-01T07:58:20;96250.84;;;40.53;26.48
70141;BME280;57508;43.086;0.136;2022-08-01T08:00:46;96255.81;;;40.79;24.86
70141;BME280;57508;43.086;0.136;2022-08-01T08:03:11;96252.84;;;40.68;25.55
70141;BME280;57508;43.086;0.136;2022-08-01T08:05:36;96247.22;;;41.07;25.76
70141;BME280;57508;43.086;0.136;2022-08-01T08:08:02;96242.72;;;40.80;25.49
70141;BME280;57508;43.086;0.136;2022-08-01T08:10:29;96245.59;;;41.15;25.78
70141;BME280;57508;43.086;0.136;2022-08-01T08:12:54;96246.47;;;40.92;25.46
70141;BME280;57508;43.086;0.136;2022-08-01T08:15:19;96252.50;;;39.71;26.92
70141;BME280;57508;43.086;0.136;2022-08-01T08:17:45;96254.16;;;41.33;25.77
70141;BME280;57508;43.086;0.136;2022-08-01T08:20:10;96236.31;;;40.58;25.58
70141;BME280;57508;43.086;0.136;2022-08-01T08:22:35;96239.75;;;41.13;25.26
70141;BME280;57508;43.086;0.136;2022-08-01T08:25:01;96236.06;;;41.52;24.68
70141;BME280;57508;43.086;0.136;2022-08-01T08:27:26;96237.72;;;41.29;25.58
70141;BME280;57508;43.086;0.136;2022-08-01T08:29:51;96245.88;;;40.87;25.90
70141;BME280;57508;43.086;0.136;2022-08-01T08:32:17;96245.69;;;40.76;26.65
70141;BME280;57508;43.086;0.136;2022-08-01T08:34:42;96244.88;;;41.51;25.98
70141;BME280;57508;43.086;0.136;2022-08-01T08:37:07;96240.38;;;42.16;24.60
70141;BME280;57508;43.086;0.136;2022-08-01T08:39:33;96243.09;;;42.10;24.37
70141;BME280;57508;43.086;0.136;2022-08-01T08:42:04;96237.22;;;41.31;25.76
70141;BME280;57508;43.086;0.136;2022-08-01T08:44:30;96246.25;;;41.40;24.91
70141;BME280;57508;43.086;0.136;2022-08-01T08:46:56;96239.00;;;42.53;24.33
70141;BME280;57508;43.086;0.136;2022-08-01T08:49:24;96229.44;;;43.07;22.53
70141;BME280;57508;43.086;0.136;2022-08-01T08:51:50;96235.25;;;42.56;23.01
70141;BME280;57508;43.086;0.136;2022-08-01T08:54:17;96232.00;;;42.10;24.06
70141;BME280;57508;43.086;0.136;2022-08-01T08:56:43;96236.84;;;41.38;24.76
70141;BME280;57508;43.086;0.136;2022-08-01T08:59:10;96233.63;;;41.60;25.28
70141;BME280;57508;43.086;0.136;2022-08-01T09:01:36;96230.25;;;42.13;24.41
70141;BME280;57508;43.086;0.136;2022-08-01T09:04:02;96230.44;;;40.66;26.25
70141;BME280;57508;43.086;0.136;2022-08-01T09:06:28;96224.81;;;41.98;24.78
70141;BME280;57508;43.086;0.136;2022-08-01T09:08:54;96213.59;;;42.13;24.01
70141;BME280;57508;43.086;0.136;2022-08-01T09:11:20;96211.47;;;42.23;24.85
70141;BME280;57508;43.086;0.136;2022-08-01T09:14:01;96216.53;;;42.24;24.99
70141;BME280;57508;43.086;0.136;2022-08-01T09:16:26;96203.88;;;43.09;24.49
70141;BME280;57508;43.086;0.136;2022-08-01T09:18:51;96202.97;;;44.34;21.84
70141;BME280;57508;43.086;0.136;2022-08-01T09:21:21;96201.50;;;44.73;21.63
70141;BME280;57508;43.086;0.136;2022-08-01T09:23:51;96198.41;;;43.64;22.37
70141;BME280;57508;43.086;0.136;2022-08-01T09:26:18;96201.66;;;43.57;22.83
70141;BME280;57508;43.086;0.136;2022-08-01T09:28:44;96200.63;;;44.15;22.20
70141;BME280;57508;43.086;0.136;2022-08-01T09:31:17;96193.00;;;43.92;22.27
70141;BME280;57508;43.086;0.136;2022-08-01T09:33:50;96190.56;;;44.98;21.54
70141;BME280;57508;43.086;0.136;2022-08-01T09:36:16;96192.03;;;45.39;20.20
70141;BME280;57508;43.086;0.136;2022-08-01T09:38:41;96193.69;;;45.82;20.18
70141;BME280;57508;43.086;0.136;2022-08-01T09:41:06;96191.28;;;46.03;19.95
70141;BME280;57508;43.086;0.136;2022-08-01T09:43:33;96193.84;;;46.43;20.07
70141;BME280;57508;43.086;0.136;2022-08-01T09:45:59;96194.44;;;46.30;20.08
70141;BME280;57508;43.086;0.136;2022-08-01T09:48:24;96198.78;;;46.26;19.85
70141;BME280;57508;43.086;0.136;2022-08-01T09:50:51;96202.59;;;46.65;19.94
70141;BME280;57508;43.086;0.136;2022-08-01T09:53:16;96200.34;;;46.15;19.90
70141;BME280;57508;43.086;0.136;2022-08-01T09:55:42;96194.81;;;46.10;20.18
70141;BME280;57508;43.086;0.136;2022-08-01T09:58:07;96197.19;;;45.94;20.19
70141;BME280;57508;43.086;0.136;2022-08-01T10:00:33;96199.59;;;46.21;19.73
70141;BME280;57508;43.086;0.136;2022-08-01T10:02:59;96195.63;;;45.93;20.81
70141;BME280;57508;43.086;0.136;2022-08-01T10:05:31;96200.22;;;45.96;20.10
70141;BME280;57508;43.086;0.136;2022-08-01T10:10:22;96198.34;;;45.57;20.27
70141;BME280;57508;43.086;0.136;2022-08-01T10:12:47;96190.44;;;45.66;20.62
70141;BME280;57508;43.086;0.136;2022-08-01T10:15:15;96200.69;;;45.24;20.42
70141;BME280;57508;43.086;0.136;2022-08-01T10:17:41;96196.16;;;45.21;20.76
70141;BME280;57508;43.086;0.136;2022-08-01T10:20:10;96194.13;;;45.15;20.76
70141;BME280;57508;43.086;0.136;2022-08-01T10:22:36;96191.03;;;46.07;20.16
70141;BME280;57508;43.086;0.136;2022-08-01T10:25:02;96189.09;;;46.38;19.77
70141;BME280;57508;43.086;0.136;2022-08-01T10:27:28;96180.31;;;46.53;19.66
70141;BME280;57508;43.086;0.136;2022-08-01T10:29:55;96176.41;;;46.99;19.80
70141;BME280;57508;43.086;0.136;2022-08-01T10:32:22;96180.09;;;46.82;19.27
70141;BME280;57508;43.086;0.136;2022-08-01T10:34:48;96181.97;;;46.37;19.88
70141;BME280;57508;43.086;0.136;2022-08-01T10:37:14;96173.16;;;46.58;19.25
70141;BME280;57508;43.086;0.136;2022-08-01T10:39:39;96181.91;;;46.49;19.66
70141;BME280;57508;43.086;0.136;2022-08-01T10:42:05;96182.03;;;46.26;20.10
70141;BME280;57508;43.086;0.136;2022-08-01T10:44:30;96181.56;;;46.58;19.66
70141;BME280;57508;43.086;0.136;2022-08-01T10:47:01;96178.38;;;46.42;19.50
70141;BME280;57508;43.086;0.136;2022-08-01T10:49:29;96187.19;;;46.52;19.91
70141;BME280;57508;43.086;0.136;2022-08-01T10:51:56;96184.03;;;46.31;19.54
70141;BME280;57508;43.086;0.136;2022-08-01T10:54:25;96184.69;;;46.49;19.46
70141;BME280;57508;43.086;0.136;2022-08-01T10:56:51;96186.72;;;46.06;20.01
70141;BME280;57508;43.086;0.136;2022-08-01T10:59:20;96191.38;;;45.86;20.05
70141;BME280;57508;43.086;0.136;2022-08-01T11:04:49;96184.38;;;45.62;19.85
70141;BME280;57508;43.086;0.136;2022-08-01T11:07:20;96184.84;;;46.20;20.18
70141;BME280;57508;43.086;0.136;2022-08-01T11:09:47;96181.13;;;46.48;20.46
70141;BME280;57508;43.086;0.136;2022-08-01T11:12:14;96179.53;;;46.22;19.62
70141;BME280;57508;43.086;0.136;2022-08-01T11:17:30;96188.94;;;46.19;19.42
70141;BME280;57508;43.086;0.136;2022-08-01T11:22:31;96178.75;;;47.19;19.06
70141;BME280;57508;43.086;0.136;2022-08-01T11:24:56;96187.59;;;46.68;19.36
70141;BME280;57508;43.086;0.136;2022-08-01T11:27:23;96183.41;;;46.08;18.77
70141;BME280;57508;43.086;0.136;2022-08-01T11:32:33;96193.97;;;45.73;20.45
70141;BME280;57508;43.086;0.136;2022-08-01T11:34:58;96183.13;;;46.11;20.31
70141;BME280;57508;43.086;0.136;2022-08-01T11:37:27;96174.19;;;46.91;19.55
70141;BME280;57508;43.086;0.136;2022-08-01T11:42:37;96165.91;;;47.05;18.80
70141;BME280;57508;43.086;0.136;2022-08-01T11:45:02;96171.41;;;47.41;18.48
70141;BME280;57508;43.086;0.136;2022-08-01T11:47:43;96170.16;;;46.87;18.32
70141;BME280;57508;43.086;0.136;2022-08-01T11:53:06;96178.44;;;46.37;19.27
70141;BME280;57508;43.086;0.136;2022-08-01T11:55:32;96171.66;;;46.57;18.93
70141;BME280;57508;43.086;0.136;2022-08-01T11:58:07;96165.69;;;47.03;18.76
70141;BME280;57508;43.086;0.136;2022-08-01T12:00:32;96172.22;;;46.50;18.80
70141;BME280;57508;43.086;0.136;2022-08-01T12:05:23;96162.34;;;46.79;18.53
70141;BME280;57508;43.086;0.136;2022-08-01T12:07:49;96168.28;;;46.64;18.84
70141;BME280;57508;43.086;0.136;2022-08-01T12:10:15;96161.00;;;47.61;18.05
70141;BME280;57508;43.086;0.136;2022-08-01T12:12:44;96163.19;;;47.68;17.66
70141;BME280;57508;43.086;0.136;2022-08-01T12:15:10;96161.19;;;47.88;17.65
70141;BME280;57508;43.086;0.136;2022-08-01T12:17:36;96162.81;;;48.36;17.33
70141;BME280;57508;43.086;0.136;2022-08-01T12:20:03;96168.78;;;48.26;16.87
70141;BME280;57508;43.086;0.136;2022-08-01T12:22:29;96166.44;;;48.30;16.68
70141;BME280;57508;43.086;0.136;2022-08-01T12:24:55;96162.84;;;48.49;17.85
70141;BME280;57508;43.086;0.136;2022-08-01T12:27:27;96168.63;;;48.70;16.77
70141;BME280;57508;43.086;0.136;2022-08-01T12:29:53;96159.41;;;48.56;17.06
70141;BME280;57508;43.086;0.136;2022-08-01T12:34:47;96163.84;;;49.39;16.25
70141;BME280;57508;43.086;0.136;2022-08-01T12:37:12;96165.53;;;49.01;16.79
70141;BME280;57508;43.086;0.136;2022-08-01T12:39:37;96161.75;;;48.99;16.37
70141;BME280;57508;43.086;0.136;2022-08-01T12:42:05;96153.81;;;47.85;17.20
70141;BME280;57508;43.086;0.136;2022-08-01T12:44:31;96156.25;;;48.47;16.89
70141;BME280;57508;43.086;0.136;2022-08-01T12:46:57;96146.47;;;48.01;17.70
70141;BME280;57508;43.086;0.136;2022-08-01T12:49:22;96158.59;;;47.90;17.50
70141;BME280;57508;43.086;0.136;2022-08-01T12:51:48;96159.78;;;47.76;17.79
70141;BME280;57508;43.086;0.136;2022-08-01T12:54:14;96151.69;;;46.78;18.47
70141;BME280;57508;43.086;0.136;2022-08-01T12:56:39;96155.78;;;47.71;17.63
70141;BME280;57508;43.086;0.136;2022-08-01T13:01:50;96154.41;;;47.78;17.50
70141;BME280;57508;43.086;0.136;2022-08-01T13:04:16;96155.91;;;47.79;17.83
70141;BME280;57508;43.086;0.136;2022-08-01T13:06:41;96153.28;;;46.67;19.43
70141;BME280;57508;43.086;0.136;2022-08-01T13:09:07;96150.78;;;45.20;21.04
70141;BME280;57508;43.086;0.136;2022-08-01T13:11:33;96147.09;;;45.60;20.45
70141;BME280;57508;43.086;0.136;2022-08-01T13:13:59;96147.97;;;45.91;19.70
70141;BME280;57508;43.086;0.136;2022-08-01T13:16:25;96150.75;;;45.97;18.94
70141;BME280;57508;43.086;0.136;2022-08-01T13:18:51;96146.63;;;46.46;20.17
70141;BME280;57508;43.086;0.136;2022-08-01T13:21:18;96149.06;;;46.18;20.44
70141;BME280;57508;43.086;0.136;2022-08-01T13:26:46;96127.88;;;46.65;18.49
70141;BME280;57508;43.086;0.136;2022-08-01T13:29:13;96135.53;;;45.27;19.20
70141;BME280;57508;43.086;0.136;2022-08-01T13:31:39;96132.84;;;45.75;19.68
70141;BME280;57508;43.086;0.136;2022-08-01T13:34:04;96134.22;;;47.22;19.63
70141;BME280;57508;43.086;0.136;2022-08-01T13:36:30;96133.25;;;47.63;18.90
70141;BME280;57508;43.086;0.136;2022-08-01T13:38:56;96131.75;;;47.62;17.86